Time;durP1;ratioP1;P1;durP2;ratioP2;P2;SDS_P1;SDS_P2;PMS_P1;PMS_P2;Temp;Humidity;BMP_temperature;BMP_pressure;BME280_temperature;BME280_humidity;BME280_pressure;Samples;Min_cycle;Max_cycle;Signal;HPM_P1;HPM_P2
2023/08/01 00:01:00;;;;;;;9.05;6.65;;;16.60;96.60;;;;;;5073058;28;20029;-49
2023/08/01 00:03:27;;;;;;;;;;;16.50;96.60;;;;;;5074047;28;20068;-50
2023/08/01 00:05:55;;;;;;;7.45;6.20;;;16.50;96.60;;;;;;5072811;28;19909;-50
2023/08/01 00:08:22;;;;;;;14.00;7.75;;;16.50;96.60;;;;;;5055618;28;20166;-49
2023/08/01 00:10:49;;;;;;;10.60;7.05;;;16.50;96.60;;;;;;5073272;28;20069;-51
2023/08/01 00:13:18;;;;;;;9.68;6.88;;;16.50;96.60;;;;;;5073167;28;20563;-50
2023/08/01 00:15:47;;;;;;;;;;;16.50;96.50;;;;;;5073010;28;20036;-51
2023/08/01 00:18:16;;;;;;;10.70;6.13;;;16.40;96.50;;;;;;5073351;28;20448;-50
2023/08/01 00:20:43;;;;;;;12.00;5.67;;;16.40;96.50;;;;;;5073126;28;20028;-49
2023/08/01 00:23:12;;;;;;;8.73;6.32;;;16.50;96.50;;;;;;5072342;28;20230;-50
2023/08/01 00:25:39;;;;;;;10.27;5.97;;;16.40;96.50;;;;;;5071718;28;20024;-50
2023/08/01 00:28:08;;;;;;;11.18;5.88;;;16.40;96.50;;;;;;5072508;28;20032;-49
2023/08/01 00:30:35;;;;;;;12.13;6.17;;;16.40;96.50;;;;;;5055548;28;20032;-49
2023/08/01 00:33:03;;;;;;;10.05;5.30;;;16.40;96.50;;;;;;5072167;28;20040;-51
2023/08/01 00:35:28;;;;;;;9.55;6.07;;;16.40;96.50;;;;;;5072970;28;20426;-54
2023/08/01 00:37:57;;;;;;;9.18;4.95;;;16.40;96.50;;;;;;5072913;28;20117;-51
2023/08/01 00:40:31;;;;;;;7.43;4.57;;;16.40;96.50;;;;;;5073103;28;20025;-54
2023/08/01 00:42:58;;;;;;;13.15;6.20;;;16.40;96.50;;;;;;5072264;28;20824;-51
2023/08/01 00:45:32;;;;;;;13.63;6.47;;;16.40;96.50;;;;;;5072961;28;20442;-50
2023/08/01 00:47:59;;;;;;;12.07;6.10;;;16.40;96.50;;;;;;5038319;28;20060;-51
2023/08/01 00:50:27;;;;;;;12.32;6.43;;;16.30;96.50;;;;;;5072819;28;20044;-49
2023/08/01 00:52:54;;;;;;;11.88;5.85;;;16.40;96.50;;;;;;5072854;28;20025;-49
2023/08/01 00:55:24;;;;;;;11.65;5.88;;;16.40;96.50;;;;;;5072216;28;20374;-49
2023/08/01 00:57:53;;;;;;;11.85;6.30;;;16.40;96.50;;;;;;5073113;28;20078;-49
2023/08/01 01:00:22;;;;;;;11.48;6.28;;;16.40;96.50;;;;;;5072852;28;20112;-49
2023/08/01 01:02:53;;;;;;;11.80;6.35;;;16.40;96.50;;;;;;5072894;28;20025;-49
2023/08/01 01:05:22;;;;;;;10.20;6.28;;;16.40;96.50;;;;;;5072201;28;20424;-49
2023/08/01 01:07:52;;;;;;;11.07;7.80;;;16.40;96.50;;;;;;5072749;28;20021;-49
2023/08/01 01:10:18;;;;;;;;;;;16.40;96.50;;;;;;5058603;28;20043;-49
2023/08/01 01:12:47;;;;;;;14.68;7.82;;;16.40;96.40;;;;;;5076536;28;20230;-50
2023/08/01 01:15:14;;;;;;;9.90;5.88;;;16.40;96.50;;;;;;5075805;28;20024;-49
2023/08/01 01:17:43;;;;;;;15.88;7.40;;;16.40;96.50;;;;;;5076394;28;20031;-49
2023/08/01 01:20:12;;;;;;;16.40;7.50;;;16.30;96.40;;;;;;5076344;28;20024;-49
2023/08/01 01:22:40;;;;;;;15.23;7.68;;;16.30;96.50;;;;;;5057535;28;20460;-51
2023/08/01 01:25:09;;;;;;;14.55;7.35;;;16.40;96.40;;;;;;5058681;28;20020;-50
2023/08/01 01:27:41;;;;;;;18.97;7.90;;;16.30;96.40;;;;;;5076217;28;20051;-51
2023/08/01 01:30:07;;;;;;;12.55;7.32;;;16.40;96.40;;;;;;5076094;28;20263;-51
2023/08/01 01:32:33;;;;;;;13.40;7.28;;;16.40;96.50;;;;;;5075157;28;20107;-49
2023/08/01 01:35:04;;;;;;;17.40;8.13;;;16.30;96.40;;;;;;5076127;28;20112;-50
2023/08/01 01:37:30;;;;;;;17.08;7.18;;;16.30;96.40;;;;;;5075996;28;20029;-50
2023/08/01 01:40:00;;;;;;;14.45;7.38;;;16.30;96.50;;;;;;5057623;28;20042;-49
2023/08/01 01:42:26;;;;;;;19.27;8.38;;;16.30;96.50;;;;;;5075652;28;20480;-52
2023/08/01 01:44:56;;;;;;;16.00;8.13;;;16.30;96.50;;;;;;5074724;28;20037;-50
2023/08/01 01:47:23;;;;;;;12.18;6.90;;;16.30;96.40;;;;;;5075387;28;20032;-50
2023/08/01 01:49:53;;;;;;;18.20;8.82;;;16.30;96.40;;;;;;5075038;28;20115;-50
2023/08/01 01:52:22;;;;;;;14.60;7.63;;;16.30;96.40;;;;;;5075804;28;20064;-49
2023/08/01 01:54:49;;;;;;;15.97;7.10;;;16.30;96.40;;;;;;5074765;28;20700;-51
2023/08/01 01:57:14;;;;;;;13.93;7.22;;;16.30;96.40;;;;;;5075741;28;20036;-50
2023/08/01 01:59:43;;;;;;;19.65;8.15;;;16.20;96.40;;;;;;5074898;28;20036;-50
2023/08/01 02:02:10;;;;;;;16.48;9.13;;;16.30;96.40;;;;;;5074995;28;20025;-53
2023/08/01 02:04:35;;;;;;;13.50;6.38;;;16.20;96.40;;;;;;5075578;28;20107;-51
2023/08/01 02:07:03;;;;;;;17.25;7.78;;;16.20;96.40;;;;;;5074908;28;20115;-51
2023/08/01 02:09:33;;;;;;;15.85;7.70;;;16.20;96.40;;;;;;5075526;28;20048;-50
2023/08/01 02:11:59;;;;;;;14.00;7.10;;;16.20;96.40;;;;;;5075660;28;20025;-52
2023/08/01 02:14:26;;;;;;;15.07;8.10;;;16.20;96.40;;;;;;5074707;28;20039;-51
2023/08/01 02:16:58;;;;;;;23.73;8.75;;;16.20;96.40;;;;;;5075107;28;20084;-50
2023/08/01 02:19:24;;;;;;;13.60;7.35;;;16.20;96.40;;;;;;5074425;28;20024;-50
2023/08/01 02:21:50;;;;;;;11.63;7.00;;;16.20;96.40;;;;;;5074385;28;20335;-51
2023/08/01 02:24:19;;;;;;;17.52;8.32;;;16.20;96.40;;;;;;5074745;28;20031;-51
2023/08/01 02:26:45;;;;;;;18.90;7.90;;;16.20;96.40;;;;;;5057359;28;20056;-53
2023/08/01 02:29:11;;;;;;;17.23;9.55;;;16.20;96.40;;;;;;5039765;28;20071;-50
2023/08/01 02:31:38;;;;;;;18.58;8.13;;;16.10;96.40;;;;;;5057378;28;20028;-50
2023/08/01 02:34:07;;;;;;;18.02;8.98;;;16.10;96.40;;;;;;5073800;28;20127;-51
2023/08/01 02:36:34;;;;;;;14.77;8.00;;;16.20;96.40;;;;;;5057342;28;20024;-53
2023/08/01 02:39:00;;;;;;;20.02;10.45;;;16.20;96.40;;;;;;5074144;28;20040;-51
2023/08/01 02:41:27;;;;;;;17.35;7.55;;;16.20;96.50;;;;;;5075001;28;20453;-50
2023/08/01 02:43:53;;;;;;;13.98;7.82;;;16.20;96.40;;;;;;5040605;28;20039;-50
2023/08/01 02:46:19;;;;;;;18.25;9.80;;;16.20;96.50;;;;;;5074815;28;20028;-49
2023/08/01 02:48:48;;;;;;;16.40;8.25;;;16.20;96.40;;;;;;5074192;28;20040;-53
2023/08/01 02:51:20;;;;;;;19.13;9.60;;;16.20;96.40;;;;;;5057086;28;20047;-56
2023/08/01 02:53:47;;;;;;;15.63;7.80;;;16.20;96.40;;;;;;5073965;28;20037;-51
2023/08/01 02:56:14;;;;;;;15.88;8.15;;;16.20;96.30;;;;;;5074682;28;20296;-56
2023/08/01 02:58:44;;;;;;;13.55;7.40;;;16.20;96.30;;;;;;5074618;28;20017;-50
2023/08/01 03:01:10;;;;;;;13.90;8.48;;;16.10;96.30;;;;;;5073788;28;20033;-51
2023/08/01 03:03:37;;;;;;;16.67;7.95;;;16.10;96.30;;;;;;5074393;28;20048;-51
2023/08/01 03:06:04;;;;;;;13.95;8.07;;;16.10;96.30;;;;;;5074508;28;20428;-52
2023/08/01 03:08:31;;;;;;;13.65;7.47;;;16.10;96.30;;;;;;5056046;28;20376;-53
2023/08/01 03:11:00;;;;;;;14.52;6.45;;;16.00;96.20;;;;;;5074273;28;20052;-50
2023/08/01 03:13:27;;;;;;;15.97;7.47;;;15.90;96.10;;;;;;5074076;28;20022;-50
2023/08/01 03:15:56;;;;;;;11.27;6.88;;;15.90;96.00;;;;;;5073015;28;20099;-50
2023/08/01 03:18:22;;;;;;;16.57;7.53;;;15.80;96.00;;;;;;5074323;28;20024;-52
2023/08/01 03:20:49;;;;;;;14.45;6.65;;;15.80;96.00;;;;;;5074124;28;21138;-53
2023/08/01 03:23:16;;;;;;;14.07;7.00;;;15.80;96.00;;;;;;5073383;28;20033;-51
2023/08/01 03:25:42;;;;;;;17.75;8.82;;;15.80;96.00;;;;;;5073961;28;20029;-52
2023/08/01 03:28:11;;;;;;;13.93;7.28;;;15.80;96.00;;;;;;5055222;28;20350;-53
2023/08/01 03:30:36;;;;;;;17.58;7.88;;;15.80;96.00;;;;;;5074102;28;20329;-51
2023/08/01 03:33:03;;;;;;;14.30;8.00;;;15.80;96.00;;;;;;5073526;28;20067;-49
2023/08/01 03:35:30;;;;;;;14.15;6.53;;;15.80;96.00;;;;;;5073652;28;20078;-50
2023/08/01 03:37:57;;;;;;;16.90;7.05;;;15.80;96.10;;;;;;5072477;28;20483;-50
2023/08/01 03:40:24;;;;;;;14.35;8.73;;;15.80;96.00;;;;;;5073727;28;20024;-50
2023/08/01 03:42:56;;;;;;;13.75;7.45;;;15.80;96.10;;;;;;5055375;28;20035;-51
2023/08/01 03:45:23;;;;;;;14.18;7.93;;;15.70;96.10;;;;;;5073747;28;20025;-52
2023/08/01 03:47:50;;;;;;;18.23;6.43;;;15.70;96.00;;;;;;5073854;28;20036;-50
2023/08/01 03:50:17;;;;;;;13.13;6.97;;;15.70;96.00;;;;;;5073603;28;20056;-49
2023/08/01 03:52:43;;;;;;;14.77;6.75;;;15.70;96.10;;;;;;5072832;28;20352;-53
2023/08/01 03:55:10;;;;;;;15.20;7.03;;;15.70;96.10;;;;;;5072937;28;20024;-51
2023/08/01 03:57:38;;;;;;;14.65;6.97;;;15.70;96.10;;;;;;5073455;28;20036;-49
2023/08/01 04:00:13;;;;;;;13.65;7.25;;;15.70;96.10;;;;;;5072769;28;20516;-54
2023/08/01 04:02:44;;;;;;;12.00;6.25;;;15.70;96.10;;;;;;5073645;28;20104;-50
2023/08/01 04:05:11;;;;;;;12.05;7.32;;;15.70;96.10;;;;;;5055825;28;20028;-49
2023/08/01 04:07:38;;;;;;;11.57;6.22;;;15.70;96.00;;;;;;5072580;28;20086;-52
2023/08/01 04:10:11;;;;;;;17.38;6.82;;;15.70;96.00;;;;;;5072710;28;20032;-49
2023/08/01 04:12:42;;;;;;;13.70;6.60;;;15.60;95.90;;;;;;5054380;28;20063;-49
2023/08/01 04:15:08;;;;;;;17.27;7.22;;;15.60;95.90;;;;;;5055570;28;20422;-49
2023/08/01 04:17:35;;;;;;;15.30;6.40;;;15.60;95.90;;;;;;5073132;28;20036;-49
2023/08/01 04:20:02;;;;;;;13.23;5.95;;;15.60;95.90;;;;;;5054857;28;20020;-48
2023/08/01 04:22:29;;;;;;;13.07;6.25;;;15.50;95.90;;;;;;5073101;28;20104;-49
2023/08/01 04:24:56;;;;;;;15.98;5.82;;;15.60;95.80;;;;;;5073030;28;20067;-49
2023/08/01 04:27:22;;;;;;;13.30;7.45;;;15.50;95.80;;;;;;5073096;28;20028;-49
2023/08/01 04:29:48;;;;;;;10.82;6.15;;;15.50;95.70;;;;;;5072408;28;20345;-48
2023/08/01 04:32:15;;;;;;;13.75;7.03;;;15.50;95.80;;;;;;5072373;28;20123;-49
2023/08/01 04:34:42;;;;;;;11.82;6.32;;;15.40;95.70;;;;;;5072986;28;20055;-49
2023/08/01 04:37:10;;;;;;;21.77;7.15;;;15.40;95.70;;;;;;5072893;28;20039;-48
2023/08/01 04:39:38;;;;;;;11.18;6.80;;;15.40;95.70;;;;;;5072423;28;20028;-49
2023/08/01 04:42:06;;;;;;;10.48;5.82;;;15.40;95.70;;;;;;5073116;28;20081;-48
2023/08/01 04:44:34;;;;;;;12.38;6.53;;;15.40;95.70;;;;;;5075062;28;20027;-49
2023/08/01 04:47:01;;;;;;;13.23;7.43;;;15.40;95.70;;;;;;5076710;28;20036;-52
2023/08/01 04:49:27;;;;;;;14.85;7.00;;;15.40;95.60;;;;;;5076944;28;20047;-48
2023/08/01 04:51:55;;;;;;;12.38;5.97;;;15.40;95.60;;;;;;5077100;28;20020;-51
2023/08/01 04:54:22;;;;;;;12.07;6.60;;;15.40;95.60;;;;;;5070379;28;20103;-48
2023/08/01 04:56:51;;;;;;;13.38;6.28;;;15.40;95.60;;;;;;5076402;28;20349;-49
2023/08/01 04:59:18;;;;;;;12.43;6.15;;;15.40;95.60;;;;;;5076920;28;20089;-48
2023/08/01 05:01:49;;;;;;;16.35;6.38;;;15.40;95.60;;;;;;5076602;28;20025;-49
2023/08/01 05:04:16;;;;;;;10.95;5.85;;;15.40;95.40;;;;;;5076957;28;20044;-49
2023/08/01 05:06:45;;;;;;;11.02;6.05;;;15.40;95.60;;;;;;5075930;28;20024;-50
2023/08/01 05:09:12;;;;;;;12.50;5.65;;;15.40;95.60;;;;;;5076071;28;20029;-49
2023/08/01 05:11:39;;;;;;;12.27;5.82;;;15.40;95.60;;;;;;5076711;28;20021;-51
2023/08/01 05:14:08;;;;;;;11.70;5.88;;;15.40;95.60;;;;;;5076660;28;20492;-49
2023/08/01 05:16:35;;;;;;;13.30;5.60;;;15.40;95.60;;;;;;5075727;28;20587;-51
2023/08/01 05:19:00;;;;;;;13.30;6.22;;;15.50;95.60;;;;;;5076324;28;20032;-49
2023/08/01 05:21:27;;;;;;;17.55;6.22;;;15.60;95.60;;;;;;5076514;28;20025;-50
2023/08/01 05:23:54;;;;;;;13.70;5.63;;;15.60;95.50;;;;;;5075670;28;20031;-50
2023/08/01 05:26:20;;;;;;;13.57;6.47;;;15.70;95.50;;;;;;5076324;28;20071;-50
2023/08/01 05:28:47;;;;;;;9.93;5.72;;;15.80;95.50;;;;;;5076296;28;20036;-51
2023/08/01 05:31:16;;;;;;;11.27;5.57;;;15.90;95.30;;;;;;5075349;28;20381;-50
2023/08/01 05:33:43;;;;;;;10.00;5.10;;;15.90;95.20;;;;;;5075638;28;20049;-52
2023/08/01 05:36:12;;;;;;;11.70;6.07;;;15.90;95.20;;;;;;5075802;28;20453;-52
2023/08/01 05:38:39;;;;;;;10.98;5.55;;;15.90;95.00;;;;;;5075285;28;20071;-51
2023/08/01 05:41:06;;;;;;;16.15;5.85;;;15.90;94.70;;;;;;5056403;28;20036;-50
2023/08/01 05:43:35;;;;;;;8.63;4.93;;;15.90;94.80;;;;;;5038508;28;20112;-50
2023/08/01 05:46:01;;;;;;;12.05;5.22;;;15.90;94.70;;;;;;5055820;28;20029;-53
2023/08/01 05:48:27;;;;;;;9.35;4.80;;;16.00;94.60;;;;;;5061163;28;20334;-54
2023/08/01 05:50:55;;;;;;;11.93;5.10;;;16.00;94.60;;;;;;5076006;28;20358;-56
2023/08/01 05:53:22;;;;;;;9.13;5.75;;;16.00;94.50;;;;;;5074985;28;20095;-50
2023/08/01 05:55:49;;;;;;;12.32;5.85;;;16.00;94.40;;;;;;5074681;28;20035;-52
2023/08/01 05:58:19;;;;;;;10.77;5.20;;;16.00;94.50;;;;;;5075535;28;20093;-51
2023/08/01 06:00:45;;;;;;;9.35;5.38;;;16.00;94.50;;;;;;5075758;28;20433;-55
2023/08/01 06:03:11;;;;;;;14.50;5.45;;;16.10;94.60;;;;;;5075083;28;20085;-53
2023/08/01 06:05:40;;;;;;;12.98;5.63;;;16.20;94.60;;;;;;5075733;28;20024;-56
2023/08/01 06:08:07;;;;;;;14.93;5.50;;;16.40;94.50;;;;;;5075757;28;20372;-56
2023/08/01 06:10:36;;;;;;;10.57;5.03;;;16.50;94.70;;;;;;5075719;28;20127;-53
2023/08/01 06:13:03;;;;;;;6.68;4.00;;;16.70;94.60;;;;;;5074428;28;20028;-51
2023/08/01 06:15:29;;;;;;;11.10;4.68;;;16.80;94.30;;;;;;5075409;28;20434;-49
2023/08/01 06:17:56;;;;;;;9.02;4.05;;;16.80;94.00;;;;;;5074949;28;20028;-49
2023/08/01 06:20:23;;;;;;;8.95;4.50;;;16.90;93.90;;;;;;5057949;28;20182;-51
2023/08/01 06:22:50;;;;;;;6.38;3.83;;;16.90;93.50;;;;;;5074486;28;20033;-49
2023/08/01 06:25:17;;;;;;;7.68;4.07;;;16.70;92.90;;;;;;5075165;28;20051;-48
2023/08/01 06:27:44;;;;;;;6.70;3.78;;;16.80;93.30;;;;;;5075236;28;20028;-48
2023/08/01 06:30:15;;;;;;;12.23;4.75;;;16.70;93.10;;;;;;5074736;28;20047;-48
2023/08/01 06:32:41;;;;;;;8.93;4.10;;;16.60;92.90;;;;;;5074865;28;20323;-48
2023/08/01 06:35:09;;;;;;;6.63;3.90;;;16.60;93.20;;;;;;5074943;28;20043;-51
2023/08/01 06:37:36;;;;;;;6.95;3.92;;;16.70;93.50;;;;;;5074935;28;20043;-48
2023/08/01 06:40:04;;;;;;;13.30;5.18;;;16.80;93.80;;;;;;5074325;28;20058;-51
2023/08/01 06:42:31;;;;;;;14.98;5.25;;;16.90;93.70;;;;;;5074838;28;20078;-54
2023/08/01 06:44:57;;;;;;;11.63;4.22;;;17.00;93.60;;;;;;5074861;28;20471;-52
2023/08/01 06:47:24;;;;;;;7.35;3.78;;;17.00;93.30;;;;;;5074212;28;20029;-50
2023/08/01 06:49:50;;;;;;;8.30;3.45;;;17.10;92.90;;;;;;5057185;28;20036;-50
2023/08/01 06:52:17;;;;;;;9.48;3.50;;;17.20;93.00;;;;;;5073805;28;20043;-54
2023/08/01 06:54:44;;;;;;;9.00;3.58;;;17.40;92.80;;;;;;5056130;28;20535;-54
2023/08/01 06:57:11;;;;;;;7.80;3.47;;;17.40;91.90;;;;;;5057175;28;20089;-59
2023/08/01 06:59:39;;;;;;;10.43;3.83;;;17.40;91.90;;;;;;5074638;28;20024;-58
2023/08/01 07:02:08;;;;;;;6.05;2.63;;;17.40;91.10;;;;;;5073974;28;20120;-61
2023/08/01 07:04:34;;;;;;;6.45;3.55;;;17.30;91.10;;;;;;5074573;28;20103;-60
2023/08/01 07:07:02;;;;;;;7.90;3.53;;;17.20;91.10;;;;;;5073486;28;20103;-60
2023/08/01 07:09:29;;;;;;;8.88;3.60;;;17.20;91.60;;;;;;5074363;28;20055;-60
2023/08/01 07:11:56;;;;;;;7.28;2.47;;;17.30;91.60;;;;;;5073596;28;20097;-62
2023/08/01 07:14:23;;;;;;;5.57;2.80;;;17.40;91.50;;;;;;5056621;28;20028;-61
2023/08/01 07:16:50;;;;;;;8.45;3.33;;;17.40;91.30;;;;;;5074194;28;20103;-60
2023/08/01 07:19:16;;;;;;;8.38;2.90;;;17.50;91.00;;;;;;5074187;28;20108;-61
2023/08/01 07:21:48;;;;;;;7.68;2.95;;;17.60;90.80;;;;;;5055809;28;20553;-58
2023/08/01 07:24:15;;;;;;;6.18;2.95;;;17.60;90.10;;;;;;5074017;28;20032;-57
2023/08/01 07:26:42;;;;;;;7.28;2.70;;;17.50;89.80;;;;;;5073976;28;20032;-53
2023/08/01 07:29:10;;;;;;;7.28;2.38;;;17.70;90.30;;;;;;5073450;28;20035;-58
2023/08/01 07:31:37;;;;;;;5.20;1.90;;;17.90;89.50;;;;;;5074059;28;20035;-56
2023/08/01 07:34:04;;;;;;;5.82;2.30;;;18.10;88.70;;;;;;5073791;28;20487;-58
2023/08/01 07:36:29;;;;;;;7.68;2.35;;;18.20;88.60;;;;;;5073182;28;20085;-56
2023/08/01 07:38:56;;;;;;;6.18;2.55;;;18.30;88.00;;;;;;5074020;28;20021;-58
2023/08/01 07:41:21;;;;;;;6.93;2.28;;;18.30;88.30;;;;;;5056054;28;20028;-58
2023/08/01 07:43:51;;;;;;;6.85;2.88;;;18.40;87.80;;;;;;5073206;28;20035;-59
2023/08/01 07:46:18;;;;;;;7.50;1.65;;;18.50;86.70;;;;;;5056029;28;20028;-57
2023/08/01 07:48:44;;;;;;;5.18;1.83;;;18.90;86.10;;;;;;5073676;28;20162;-58
2023/08/01 07:51:11;;;;;;;4.95;1.95;;;19.20;84.30;;;;;;5056135;28;20028;-60
2023/08/01 07:53:37;;;;;;;5.47;1.55;;;19.40;84.30;;;;;;5072967;28;20471;-56
2023/08/01 07:56:06;;;;;;;4.25;1.50;;;19.70;84.10;;;;;;5073372;28;20028;-55
2023/08/01 07:58:32;;;;;;;2.75;1.65;;;19.90;81.90;;;;;;5073633;28;20063;-55
2023/08/01 08:01:04;;;;;;;7.50;1.75;;;19.90;80.10;;;;;;5072281;28;20056;-57
2023/08/01 08:03:33;;;;;;;4.55;1.25;;;19.40;80.60;;;;;;5073580;28;20314;-59
2023/08/01 08:06:03;;;;;;;3.53;1.05;;;19.20;80.60;;;;;;5072903;28;20449;-58
2023/08/01 08:08:33;;;;;;;3.53;1.85;;;19.00;82.40;;;;;;5072585;28;20047;-55
2023/08/01 08:11:01;;;;;;;4.30;1.42;;;19.30;83.40;;;;;;5073397;28;20726;-58
2023/08/01 08:13:28;;;;;;;5.18;1.70;;;19.40;81.50;;;;;;5058716;28;20052;-55
2023/08/01 08:15:59;;;;;;;4.90;1.70;;;19.50;81.80;;;;;;5073086;28;20024;-53
2023/08/01 08:18:26;;;;;;;3.53;1.08;;;19.30;81.30;;;;;;5055457;28;20028;-59
2023/08/01 08:20:55;;;;;;;3.80;2.10;;;19.20;80.80;;;;;;5072559;28;20054;-55
2023/08/01 08:23:22;;;;;;;4.30;1.40;;;19.60;81.90;;;;;;5073064;28;20109;-56
2023/08/01 08:25:50;;;;;;;3.55;1.20;;;19.90;80.60;;;;;;5073413;28;20025;-57
2023/08/01 08:28:29;;;;;;;4.05;1.35;;;19.80;80.30;;;;;;5072687;28;20021;-54
2023/08/01 08:30:55;;;;;;;2.90;1.13;;;19.90;79.30;;;;;;5055577;28;20055;-51
2023/08/01 08:33:23;;;;;;;2.63;1.15;;;19.40;80.20;;;;;;5054162;28;20051;-48
2023/08/01 08:35:50;;;;;;;2.65;1.40;;;18.70;82.40;;;;;;5055348;28;20412;-50
2023/08/01 08:38:18;;;;;;;4.10;1.33;;;18.30;84.70;;;;;;5072288;28;20036;-48
2023/08/01 08:41:06;;;;;;;9.88;1.88;;;17.90;85.60;;;;;;5073075;28;20377;-50
2023/08/01 08:43:37;;;;;;;4.72;1.58;;;17.80;87.20;;;;;;5073066;28;20045;-49
2023/08/01 08:46:05;;;;;;;4.80;1.45;;;17.60;88.00;;;;;;5073075;28;20017;-50
2023/08/01 08:48:33;;;;;;;2.42;1.00;;;17.50;88.40;;;;;;5071981;28;20052;-54
2023/08/01 08:51:01;;;;;;;9.88;1.98;;;17.50;88.00;;;;;;5073192;28;20100;-59
2023/08/01 08:53:32;;;;;;;7.00;1.17;;;17.80;88.30;;;;;;5072756;28;20092;-59
2023/08/01 08:56:02;;;;;;;3.67;1.20;;;18.40;87.00;;;;;;5055000;28;20633;-57
2023/08/01 08:58:31;;;;;;;3.58;0.75;;;18.90;86.70;;;;;;5072791;28;20036;-58
2023/08/01 09:01:00;;;;;;;2.47;0.90;;;19.50;85.00;;;;;;5072410;28;20090;-51
2023/08/01 09:03:28;;;;;;;3.17;1.33;;;19.90;83.50;;;;;;5072813;28;20460;-54
2023/08/01 09:06:09;;;;;;;2.60;0.93;;;19.90;81.70;;;;;;5054546;28;20041;-60
2023/08/01 09:08:39;;;;;;;2.45;0.90;;;19.90;80.70;;;;;;5054819;28;20077;-61
2023/08/01 09:11:06;;;;;;;2.45;0.95;;;19.90;80.20;;;;;;5071968;28;20104;-59
2023/08/01 09:13:34;;;;;;;1.80;0.70;;;19.70;81.00;;;;;;5072777;28;20032;-51
2023/08/01 09:16:02;;;;;;;1.67;0.88;;;19.80;80.80;;;;;;5073489;28;20369;-59
2023/08/01 09:18:28;;;;;;;2.08;0.73;;;19.90;80.70;;;;;;5072682;28;20025;-58
2023/08/01 09:20:57;;;;;;;2.33;0.70;;;20.10;81.30;;;;;;5072760;28;20054;-59
2023/08/01 09:23:25;;;;;;;2.33;0.90;;;19.70;78.20;;;;;;5072195;28;20044;-57
2023/08/01 09:25:52;;;;;;;1.90;0.93;;;19.40;80.00;;;;;;5072699;28;20024;-59
2023/08/01 09:28:22;;;;;;;1.40;0.63;;;19.70;82.20;;;;;;5054220;28;20489;-57
2023/08/01 09:30:50;;;;;;;4.10;0.80;;;20.00;80.90;;;;;;5074062;28;20075;-57
2023/08/01 09:33:20;;;;;;;2.40;0.85;;;20.30;80.30;;;;;;5076111;28;20052;-59
2023/08/01 09:35:46;;;;;;;2.70;0.63;;;20.70;78.50;;;;;;5076260;28;20033;-60
2023/08/01 09:38:15;;;;;;;1.52;0.60;;;20.60;77.20;;;;;;5075379;28;20039;-59
2023/08/01 09:40:45;;;;;;;3.03;0.77;;;20.30;77.40;;;;;;5076275;28;20099;-57
2023/08/01 09:43:13;;;;;;;3.63;0.60;;;20.10;76.80;;;;;;5076129;28;20020;-60
2023/08/01 09:45:51;;;;;;;1.27;0.60;;;19.90;77.80;;;;;;5075792;28;20047;-58
2023/08/01 09:48:25;;;;;;;1.33;0.55;;;19.90;78.80;;;;;;5056047;28;20086;-48
2023/08/01 09:51:13;;;;;;;3.17;0.93;;;19.50;79.80;;;;;;5056052;28;20029;-47
2023/08/01 09:53:55;;;;;;;4.00;1.20;;;19.20;81.20;;;;;;5064011;28;20075;-48
2023/08/01 09:56:27;;;;;;;1.83;0.80;;;18.60;82.10;;;;;;5075812;28;20445;-48
2023/08/01 09:58:58;;;;;;;2.60;0.77;;;18.40;83.20;;;;;;5075781;28;20017;-48
2023/08/01 10:01:26;;;;;;;4.97;0.90;;;18.30;85.00;;;;;;5057394;28;20048;-51
2023/08/01 10:03:53;;;;;;;3.55;0.85;;;18.40;86.00;;;;;;5075736;28;20012;-51
2023/08/01 10:06:39;;;;;;;2.80;0.93;;;18.60;86.40;;;;;;5057129;28;20421;-57
2023/08/01 10:09:09;;;;;;;3.70;1.00;;;18.60;86.40;;;;;;5075392;28;20303;-60
2023/08/01 10:11:40;;;;;;;2.88;1.08;;;18.60;85.30;;;;;;5075637;28;20051;-58
2023/08/01 10:14:07;;;;;;;2.72;0.95;;;18.40;85.60;;;;;;5075504;28;20052;-59
2023/08/01 10:16:36;;;;;;;2.38;0.90;;;18.30;85.80;;;;;;5056900;28;20079;-57
2023/08/01 10:19:07;;;;;;;2.87;0.80;;;18.20;87.00;;;;;;5075502;28;20021;-50
2023/08/01 10:21:34;;;;;;;3.22;0.75;;;18.10;87.40;;;;;;5075459;28;20576;-47
2023/08/01 10:24:03;;;;;;;2.38;1.08;;;18.00;86.80;;;;;;5074664;28;20510;-47
2023/08/01 10:26:31;;;;;;;1.08;0.70;;;18.00;87.80;;;;;;5074380;28;20029;-50
2023/08/01 10:28:59;;;;;;;1.70;0.70;;;18.20;88.80;;;;;;5074451;28;20112;-61
2023/08/01 10:31:26;;;;;;;2.00;0.63;;;18.90;89.70;;;;;;5074844;28;20096;-61
2023/08/01 10:33:52;;;;;;;2.00;0.50;;;19.40;88.30;;;;;;5073541;28;20101;-61
2023/08/01 10:36:37;;;;;;;1.95;0.70;;;19.60;87.70;;;;;;5074090;28;20372;-59
2023/08/01 10:39:05;;;;;;;2.72;0.70;;;19.80;84.90;;;;;;5074254;28;20024;-54
2023/08/01 10:41:38;;;;;;;1.85;0.85;;;19.80;84.70;;;;;;5054893;28;20062;-56
2023/08/01 10:44:25;;;;;;;2.70;0.82;;;19.70;84.50;;;;;;5074299;28;20166;-57
2023/08/01 10:47:01;;;;;;;0.98;0.50;;;19.50;84.00;;;;;;5073514;28;20421;-61
2023/08/01 10:49:42;;;;;;;1.98;0.65;;;19.20;84.70;;;;;;5056680;28;20517;-57
2023/08/01 10:52:27;;;;;;;1.77;0.73;;;19.00;85.10;;;;;;5074017;28;20028;-59
2023/08/01 10:55:03;;;;;;;2.35;0.68;;;19.30;85.60;;;;;;5055351;28;20029;-58
2023/08/01 10:57:35;;;;;;;2.25;0.88;;;19.40;84.60;;;;;;5073838;28;20024;-59
2023/08/01 11:00:09;;;;;;;2.08;0.50;;;19.90;85.10;;;;;;5073358;28;20021;-58
2023/08/01 11:02:36;;;;;;;2.60;0.98;;;20.40;84.60;;;;;;5073686;28;20043;-58
2023/08/01 11:05:06;;;;;;;1.08;0.50;;;20.50;83.10;;;;;;5073913;28;20051;-58
2023/08/01 11:07:34;;;;;;;2.70;0.70;;;20.40;81.30;;;;;;5073898;28;20024;-59
2023/08/01 11:10:10;;;;;;;2.03;0.57;;;20.20;80.70;;;;;;5072786;28;20101;-61
2023/08/01 11:12:41;;;;;;;1.05;0.55;;;20.20;81.90;;;;;;5073302;28;20499;-57
2023/08/01 11:15:10;;;;;;;1.70;0.63;;;20.40;81.40;;;;;;5073663;28;20107;-60
2023/08/01 11:17:38;;;;;;;1.77;0.60;;;20.10;80.00;;;;;;5072587;28;20024;-61
2023/08/01 11:20:24;;;;;;;2.45;0.73;;;20.20;82.10;;;;;;5072571;28;20078;-60
2023/08/01 11:23:08;;;;;;;5.05;1.08;;;20.20;81.10;;;;;;5073284;28;20170;-62
2023/08/01 11:25:43;;;;;;;2.97;0.80;;;20.30;81.10;;;;;;5072690;28;20040;-60
2023/08/01 11:28:12;;;;;;;3.00;0.80;;;20.00;80.40;;;;;;5055917;28;20579;-55
2023/08/01 11:30:40;;;;;;;2.08;0.68;;;19.70;83.80;;;;;;5073346;28;20031;-54
2023/08/01 11:33:25;;;;;;;4.93;0.80;;;19.60;85.50;;;;;;5052833;28;20454;-56
2023/08/01 11:35:59;;;;;;;2.75;0.60;;;19.70;85.70;;;;;;5065269;28;20036;-59
2023/08/01 11:38:29;;;;;;;2.90;0.75;;;20.10;86.20;;;;;;5073538;28;20039;-60
2023/08/01 11:41:00;;;;;;;3.25;1.02;;;19.90;84.20;;;;;;5073863;28;20107;-60
2023/08/01 11:43:52;;;;;;;4.25;0.90;;;19.60;82.50;;;;;;5073747;28;20049;-62
2023/08/01 11:46:18;;;;;;;2.72;0.80;;;19.10;82.80;;;;;;5072848;28;20082;-59
2023/08/01 11:48:51;;;;;;;4.22;1.17;;;18.90;83.90;;;;;;5073698;28;20489;-60
2023/08/01 11:51:18;;;;;;;3.67;1.17;;;18.90;83.30;;;;;;5055321;28;20103;-60
2023/08/01 11:53:48;;;;;;;3.65;1.00;;;18.60;82.60;;;;;;5073187;28;20422;-60
2023/08/01 11:56:24;;;;;;;7.65;1.83;;;18.60;83.30;;;;;;5072833;28;20430;-59
2023/08/01 11:58:54;;;;;;;5.82;1.27;;;18.90;84.20;;;;;;5073618;28;20036;-59
2023/08/01 12:01:22;;;;;;;3.90;1.33;;;19.20;83.40;;;;;;5072637;28;20038;-58
2023/08/01 12:03:53;;;;;;;4.20;1.13;;;19.20;81.10;;;;;;5073520;28;20398;-58
2023/08/01 12:06:22;;;;;;;7.32;2.00;;;19.10;81.50;;;;;;5073344;28;20357;-58
2023/08/01 12:08:53;;;;;;;8.07;2.05;;;18.80;82.80;;;;;;5073281;28;20027;-58
2023/08/01 12:11:40;;;;;;;5.28;1.35;;;18.60;81.80;;;;;;5072552;28;20103;-57
2023/08/01 12:14:10;;;;;;;5.60;1.50;;;18.50;82.00;;;;;;5072223;28;20021;-60
2023/08/01 12:16:38;;;;;;;;;;;19.00;84.30;;;;;;5056021;28;20421;-59
2023/08/01 12:19:05;;;;;;;3.30;1.15;;;19.30;83.10;;;;;;5073246;28;19946;-59
2023/08/01 12:21:33;;;;;;;4.32;1.48;;;19.60;82.50;;;;;;5054274;28;20029;-59
2023/08/01 12:24:03;;;;;;;9.40;2.08;;;19.90;80.50;;;;;;5073160;28;20021;-57
2023/08/01 12:26:30;;;;;;;4.55;1.55;;;19.70;80.30;;;;;;5072469;28;20485;-56
2023/08/01 12:28:57;;;;;;;4.65;1.55;;;19.40;81.60;;;;;;5073299;28;20017;-59
2023/08/01 12:31:23;;;;;;;10.50;2.85;;;19.10;82.80;;;;;;5073089;28;20040;-47
2023/08/01 12:33:50;;;;;;;5.72;2.30;;;18.70;83.80;;;;;;5071966;28;20059;-49
2023/08/01 12:36:17;;;;;;;10.13;1.70;;;18.40;85.50;;;;;;5055308;28;20036;-50
2023/08/01 12:38:43;;;;;;;5.28;1.40;;;18.00;86.00;;;;;;5054532;28;20329;-48
2023/08/01 12:41:10;;;;;;;5.10;1.77;;;17.90;86.80;;;;;;5073033;28;20036;-49
2023/08/01 12:43:37;;;;;;;7.60;2.38;;;17.90;87.70;;;;;;5073096;28;20017;-53
2023/08/01 12:46:05;;;;;;;8.60;1.92;;;18.00;88.90;;;;;;5073167;28;20025;-55
2023/08/01 12:48:32;;;;;;;5.93;2.15;;;18.40;89.90;;;;;;5072010;28;20384;-49
2023/08/01 12:51:01;;;;;;;6.18;1.67;;;18.70;89.40;;;;;;5055284;28;20032;-54